Tiempo atmosférico en la estación meteorológica de Guijo De Granadilla, Cáceres (393 m.)



Fecha
DESCASC
Temp. máxima en grados centígrados (hora)
DESCASC
Temp. mínima en grados centígrados (hora)
DESCASC
Temp. media en grados centígrados
DESCASC
Racha de viento máxima en m/sg (hora)
DESCASC
Velocidad máxima media en intervalos de 10 minutos(hora)
DESCASC
Precipitaciones diarias en mm
DESCASC
Precipitaciones de 00:00 a 06:00 en mm
DESCASC
Precipitaciones de 06:00 a 12:00 en mm
DESCASC
Precipitaciones de 12:00 a 18:00 en mm
DESCASC
Precipitaciones de 18:00 a 24:00 en mm
DESCASC
06-07-2020 39.8 (16:30) 24.1 (07:10) 31.9 8.89 (14:40) 5 (08:40) 0 0 0 0 0
05-07-2020 38.9 (17:50) 21.1 (07:10) 30 7.5 (02:30) 5 (01:20) 0 0 0 0 0
04-07-2020 36.4 (19:00) 20.8 (07:20) 28.6 9.17 (02:40) 5.56 (02:50) 0 0 0 0 0
03-07-2020 34.1 (18:40) 16.6 (07:20) 25.3 9.17 (07:50) 5.28 (05:20) 0 0 0 0 0
02-07-2020 31.9 (16:50) 19.9 (00:00) 25.9 9.17 (08:20) 5.83 (08:50) 0 0 0 0 0
01-07-2020 35.1 (16:30) 16.9 (00:00) 26 8.61 (16:00) 5 (19:10) 0 0 0 0 0
30-06-2020 37.2 (16:40) 21.5 (00:00) 29.4 10 (17:10) 5.83 (16:50) 0 0 0 0 0
29-06-2020 36.6 (18:00) 21.4 (00:00) 29 8.33 (07:20) 5 (02:30) 0 0 0 0 0
28-06-2020 34.9 (18:10) 20 (00:00) 27.5 8.33 (07:50) 5 (09:50) 0 0 0 0 0
27-06-2020 32.3 (16:50) 18.6 (00:00) 25.4 7.78 (08:20) 5 (08:20) 0 0 0 0 0
26-06-2020 29.8 (18:30) 14 (00:00) 21.9 8.06 (14:50) 5 (19:20) 0 0 0 0 0
25-06-2020 33.8 (18:10) 19 (00:00) 26.4 9.17 (16:50) 5.28 (17:10) 0 0 0 0 0
24-06-2020 35.8 (15:20) 22.6 (00:00) 29.2 10.83 (18:10) 6.39 (18:10) 0 0 0 0 0
23-06-2020 38.5 (17:00) 20.7 (00:00) 29.6 10 (13:40) 4.72 (17:10) 0 0 0 0 0
22-06-2020 37.3 (17:10) 20.8 (00:00) 29 8.61 (02:20) 5.28 (02:30) 0 0 0 0 0
21-06-2020 34.6 (18:00) 18.9 (00:00) 26.7 9.17 (07:10) 6.11 (09:30) 0 0 0 0 0
20-06-2020 32.8 (19:20) 18.4 (00:00) 25.6 8.61 (15:10) 4.17 (03:40) 0 0 0 0 0
19-06-2020 30.7 (17:20) 16.3 (00:00) 23.5 8.33 (05:30) 5.28 (05:30) 0 0 0 0 0
18-06-2020 29.7 (17:40) 16.2 (00:00) 23 9.44 (16:10) 4.72 (07:30) 0 0 0 0 0
17-06-2020 26.9 (19:20) 13 (00:00) 19.9 8.61 (07:40) 5 (10:30) 0 0 0 0 0
16-06-2020 26.1 (16:10) 16 (00:00) 21.1 10.56 (18:50) 5.83 (19:20) 0 0 0 0 0
15-06-2020 27.2 (17:50) 12 (00:00) 19.6 8.89 (15:40) 5 (19:50) 0 0 0 0 0
14-06-2020 26.1 (16:40) 12.3 (00:00) 19.2 11.11 (16:10) 3.89 (23:50) 0 0 0 0 0
13-06-2020 24 (18:10) 8.9 (00:00) 16.4 10.28 (13:00) 4.72 (19:20) 0 0 0 0 0
12-06-2020 21.4 (17:40) 9 (00:00) 15.2 13.33 (18:00) 7.22 (16:50) 0.2 0 0 0.2 0
11-06-2020 25.2 (15:40) 10.4 (00:00) 17.8 14.72 (17:50) 9.17 (18:10) 0 0 0 0 0

Gráficas

Temp. máximas Temp. mínimas Temp. medias Precipitaciones Rachas de viento máximas Velocidades máximas media en intervalos de 10 minutos

Datos horarios

Fecha y hora oficial Temperatura (ºC) Velocidad del viento (km/h) Dirección del viento Racha (km/h) Dirección de racha Precipitación (mm) Presión (hPa) Tendencia (hPa) Humedad (%)
2020-07-10 23:00:00 29.7 8 Nordeste 17 Nordeste 0 -- -- 31
2020-07-10 22:00:00 31.7 7 Nordeste 15 Nordeste 0 -- -- 27
2020-07-10 21:00:00 33.9 9 Este 18 Nordeste 0 -- -- 25
2020-07-10 20:00:00 35.7 12 Nordeste 24 Nordeste 0 -- -- 22
2020-07-10 19:00:00 37.1 8 Este 21 Este 0 -- -- 21
2020-07-10 18:00:00 36.3 7 Nordeste 20 Nordeste 0 -- -- 23
2020-07-10 17:00:00 36.1 6 Norte 20 Norte 0 -- -- 24
2020-07-10 16:00:00 36.2 8 Nordeste 18 Nordeste 0 -- -- 25
2020-07-10 15:00:00 34.6 6 Norte 21 Norte 0 -- -- 27
2020-07-10 14:00:00 34 8 Nordeste 20 Este 0 -- -- 27
2020-07-10 13:00:00 32.1 6 Nordeste 15 Nordeste 0 -- -- 29
2020-07-10 12:00:00 30.9 3 Oeste 12 Nordeste 0 -- -- 33
2020-07-10 11:00:00 28.6 5 Nordeste 10 Norte 0 -- -- 39
2020-07-10 10:00:00 25.8 0 Calma 9 Sudoeste 0 -- -- 45
2020-07-10 09:00:00 23.2 3 Sudoeste 7 Sur 0 -- -- 53
2020-07-10 08:00:00 19.6 6 Sur 8 Sur 0 -- -- 58
2020-07-10 07:00:00 18.9 0 Calma 9 Sudoeste 0 -- -- 58
2020-07-10 06:00:00 19.4 4 Norte 8 Este 0 -- -- 56
2020-07-10 05:00:00 21 4 Sudoeste 9 Sudoeste 0 -- -- 49
2020-07-10 04:00:00 21.1 3 Norte 10 Sur 0 -- -- 49
2020-07-10 03:00:00 24.1 4 Oeste -- -- 0 -- -- 41
2020-07-10 02:00:00 24.1 4 Noroeste 9 Oeste 0 -- -- 39
2020-07-10 01:00:00 27.3 8 Sur 17 Sudeste 0 -- -- 32
2020-07-10 00:00:00 28.4 8 Norte 14 Norte 0 -- -- 34
2020-07-09 23:00:00 27.2 4 Nordeste 6 Oeste 0 -- -- 30
2020-07-09 22:00:00 30.1 4 Sudoeste 15 Sur 0 -- -- 26
2020-07-09 21:00:00 33.8 11 Sudoeste 25 Sudoeste 0 -- -- 21
2020-07-09 20:00:00 35 15 Oeste 27 Sudoeste 0 -- -- 19
2020-07-09 19:00:00 36.2 10 Sudoeste 19 Oeste 0 -- -- 18
2020-07-09 18:00:00 35.9 9 Sudoeste 20 Sudoeste 0 -- -- 18
2020-07-09 17:00:00 35.7 8 Sudoeste 39 Norte 0 -- -- 18
2020-07-09 16:00:00 34.9 10 Sur 20 Sur 0 -- -- 21
2020-07-09 15:00:00 33.7 6 Sur 20 Sudoeste 0 -- -- 24
2020-07-09 14:00:00 31.9 5 Noroeste 22 Oeste 0 -- -- 29
2020-07-09 13:00:00 30.6 8 Sudoeste 22 Sudoeste 0 -- -- 34
2020-07-09 12:00:00 29.1 14 Sudoeste 21 Sudoeste 0 -- -- 36
2020-07-09 11:00:00 27.1 10 Sudoeste 18 Sudoeste 0 -- -- 44
2020-07-09 10:00:00 24.4 2 Sudoeste 8 Sudoeste 0 -- -- 51
2020-07-09 09:00:00 22.5 3 Sur 9 Sur 0 -- -- 58
2020-07-09 08:00:00 17.9 5 Este 8 Nordeste 0 -- -- 71
2020-07-09 07:00:00 16.2 4 Nordeste 9 Norte 0 -- -- 75
2020-07-09 06:00:00 16.9 4 Nordeste 9 Sudeste 0 -- -- 72
2020-07-09 05:00:00 17.8 5 Sudeste 8 Este 0 -- -- 65
2020-07-09 04:00:00 18.4 3 Norte 11 Sur 0 -- -- 60
2020-07-09 03:00:00 19.8 4 Sur 13 Sur 0 -- -- 48
2020-07-09 02:00:00 20.5 5 Este 10 Este 0 -- -- 39
2020-07-09 01:00:00 22 4 Sudeste 9 Sudeste 0 -- -- 34
2020-07-09 00:00:00 24.4 5 Sudoeste 11 Sudoeste 0 -- -- 29
2020-07-08 23:00:00 26.4 5 Sudoeste 12 Oeste 0 -- -- 27
2020-07-08 22:00:00 30.2 7 Sudoeste 26 Oeste 0 -- -- 22
2020-07-08 21:00:00 33.9 12 Oeste 29 Oeste 0 -- -- 19
2020-07-08 20:00:00 35.6 13 Sudoeste 30 Sudoeste 0 -- -- 17
2020-07-08 19:00:00 36.2 16 Sudoeste 30 Sudoeste 0 -- -- 16
2020-07-08 18:00:00 36.1 17 Oeste 37 Sudoeste 0 -- -- 20
2020-07-08 17:00:00 36.4 18 Oeste 37 Sudoeste 0 -- -- 22
2020-07-08 16:00:00 36.9 12 Sudoeste 35 Sudoeste 0 -- -- 21
2020-07-08 15:00:00 36.6 18 Sur 42 Sur 0 -- -- 22
2020-07-08 14:00:00 35.6 23 Sudeste 39 Sudeste 0 -- -- 23
2020-07-08 13:00:00 34.8 21 Sur 33 Sur 0 -- -- 23
2020-07-08 12:00:00 31.9 17 Sudoeste 26 Sudoeste 0 -- -- 30
2020-07-08 11:00:00 29.8 8 Sudoeste 22 Sudoeste 0 -- -- 36
2020-07-08 10:00:00 27.7 3 Sudeste 8 Este 0 -- -- 42
2020-07-08 09:00:00 24.2 4 Este 8 Este 0 -- -- 55
2020-07-08 08:00:00 21.3 5 Nordeste 8 Nordeste 0 -- -- 62
2020-07-08 07:00:00 20.8 7 Este 9 Este 0 -- -- 59
2020-07-08 06:00:00 21.8 4 Nordeste 8 Este 0 -- -- 55
2020-07-08 05:00:00 22.7 4 Nordeste 12 Norte 0 -- -- 52
2020-07-08 04:00:00 24 6 Nordeste 10 Este 0 -- -- 48
2020-07-08 03:00:00 24 4 Nordeste 9 Este 0 -- -- 48
2020-07-08 02:00:00 24.9 6 Nordeste 11 Noroeste 0 -- -- 45
2020-07-08 01:00:00 25.1 5 Este 9 Noroeste 0 -- -- 39
2020-07-08 00:00:00 26.8 4 Este 6 Sudeste 0 -- -- 33
2020-07-07 23:00:00 28.8 4 Norte 9 Noroeste 0 -- -- 28
2020-07-07 22:00:00 33.2 3 Sudoeste 4 Sur 0 -- -- 21
2020-07-07 21:00:00 36.8 0 Calma 15 Sudoeste 0 -- -- 24
2020-07-07 20:00:00 38.5 10 Oeste 27 Sudoeste 0 -- -- 15
2020-07-07 19:00:00 39.2 13 Oeste 24 Sudoeste 0 -- -- 14
2020-07-07 18:00:00 39 13 Sur 26 Sudoeste 0 -- -- 15
2020-07-07 17:00:00 39.1 14 Sudoeste 31 Sudoeste 0 -- -- 15
2020-07-07 16:00:00 38.9 13 Sudoeste 29 Sudoeste 0 -- -- 13
2020-07-07 15:00:00 38.1 11 Sudoeste 30 Sudoeste 0 -- -- 19
2020-07-07 14:00:00 36.9 14 Sudoeste 26 Sudoeste 0 -- -- 20
2020-07-07 13:00:00 35.6 15 Sur 25 Sudoeste 0 -- -- 27
2020-07-07 12:00:00 33.6 5 Sudoeste 14 Sudoeste 0 -- -- 33
2020-07-07 11:00:00 31 5 Oeste 10 Oeste 0 -- -- 36
2020-07-07 10:00:00 28.6 2 Oeste 9 Nordeste 0 -- -- 40
2020-07-07 09:00:00 25.9 8 Norte 22 Norte 0 -- -- 46
2020-07-07 08:00:00 24.3 10 Norte 25 Norte 0 -- -- 48
2020-07-07 07:00:00 23.2 9 Norte 15 Nordeste 0 -- -- 54
2020-07-07 06:00:00 23.6 7 Nordeste 14 Norte 0 -- -- 54
2020-07-07 05:00:00 23.8 8 Este 11 Nordeste 0 -- -- 52
2020-07-07 04:00:00 25.6 3 Sudeste 18 Nordeste 0 -- -- 49
2020-07-07 03:00:00 27.9 12 Nordeste 21 Norte 0 -- -- 41
2020-07-07 02:00:00 28.6 12 Norte 22 Norte 0 -- -- 40
2020-07-07 01:00:00 29.7 12 Norte 22 Norte 0 -- -- 38
2020-07-07 00:00:00 29.7 11 Norte 17 Norte 0 -- -- 41
2020-07-06 23:00:00 30.8 6 Nordeste 14 Noroeste 0 -- -- 35
2020-07-06 22:00:00 34 8 Oeste 13 Sudoeste 0 -- -- 27
2020-07-06 21:00:00 37.6 8 Sudoeste 21 Sudoeste 0 -- -- 22
2020-07-06 20:00:00 39 12 Sudoeste 22 Sudoeste 0 -- -- 20
2020-07-06 19:00:00 39.1 13 Sur 27 Sudoeste 0 -- -- 19
2020-07-06 18:00:00 39.4 11 Sur 29 Oeste 0 -- -- 20
2020-07-06 17:00:00 39.8 8 Sudeste 25 Sur 0 -- -- 21
2020-07-06 16:00:00 39.4 11 Este 23 Este 0 -- -- 20
2020-07-06 15:00:00 37.8 9 Oeste 32 Noroeste 0 -- -- 21
2020-07-06 14:00:00 37.6 4 Sudoeste 14 Norte 0 -- -- 21
2020-07-06 13:00:00 36.1 4 Nordeste 11 Nordeste 0 -- -- 22
2020-07-06 12:00:00 33.3 5 Norte 14 Este 0 -- -- 27
2020-07-06 11:00:00 31 8 Nordeste 22 Nordeste 0 -- -- 31
2020-07-06 10:00:00 28 15 Norte 24 Norte 0 -- -- 37
2020-07-06 09:00:00 26.3 14 Norte 29 Norte 0 -- -- 40
2020-07-06 08:00:00 25.3 12 Nordeste 24 Norte 0 -- -- 40
2020-07-06 07:00:00 24.4 9 Nordeste 23 Nordeste 0 -- -- 38
2020-07-06 06:00:00 25.8 13 Norte 20 Nordeste 0 -- -- 34
2020-07-06 05:00:00 25.4 10 Norte 23 Norte 0 -- -- 36
2020-07-06 04:00:00 26.2 11 Norte 24 Norte 0 -- -- 35
2020-07-06 03:00:00 27.3 14 Norte 22 Norte 0 -- -- 33
2020-07-06 02:00:00 27.7 12 Norte 20 Norte 0 -- -- 33
2020-07-06 01:00:00 27.9 10 Norte 15 Norte 0 -- -- 32
2020-07-06 00:00:00 26.6 5 Nordeste 10 Nordeste 0 -- -- 35
2020-07-05 23:00:00 29.1 6 Nordeste 13 Noroeste 0 -- -- 27
2020-07-05 22:00:00 33 6 Oeste 8 Oeste 0 -- -- 22
2020-07-05 21:00:00 37 6 Sudoeste 19 Sudoeste 0 -- -- 18
2020-07-05 20:00:00 37.7 10 Oeste 23 Sudoeste 0 -- -- 16
2020-07-05 19:00:00 38.4 13 Sudoeste 23 Sudoeste 0 -- -- 15
2020-07-05 18:00:00 38.7 14 Oeste 27 Sudoeste 0 -- -- 15
2020-07-05 17:00:00 38.2 9 Noroeste 27 Sudoeste 0 -- -- 16
2020-07-05 16:00:00 37.5 7 Norte 18 Sudoeste 0 -- -- 15
2020-07-05 15:00:00 37.5 10 Sudoeste 19 Sudoeste 0 -- -- 17
2020-07-05 14:00:00 36.9 8 Sudoeste 21 Sur 0 -- -- 17
2020-07-05 13:00:00 34.3 4 Noroeste 10 Oeste 0 -- -- 19
2020-07-05 12:00:00 32.7 2 Sudeste 9 Norte 0 -- -- 21
2020-07-05 11:00:00 29.6 4 Nordeste 13 Nordeste 0 -- -- 26
2020-07-05 10:00:00 27.6 8 Nordeste 17 Norte 0 -- -- 28
2020-07-05 09:00:00 25.1 9 Nordeste 19 Nordeste 0 -- -- 30
2020-07-05 08:00:00 22.7 10 Nordeste 15 Nordeste 0 -- -- 37
2020-07-05 07:00:00 21.3 9 Nordeste 15 Nordeste 0 -- -- 38
2020-07-05 06:00:00 23.4 8 Nordeste 14 Nordeste 0 -- -- 31
2020-07-05 05:00:00 24.4 6 Nordeste 22 Norte 0 -- -- 28
2020-07-05 04:00:00 25.6 15 Norte 24 Nordeste 0 -- -- 27
2020-07-05 03:00:00 26.1 15 Norte 27 Norte 0 -- -- 27
2020-07-05 02:00:00 26.8 16 Norte 26 Norte 0 -- -- 26
2020-07-05 01:00:00 27.3 16 Norte 23 Norte 0 -- -- 26
2020-07-05 00:00:00 25.6 10 Norte 14 Norte 0 -- -- 33
2020-07-04 23:00:00 26.1 7 Norte 9 Norte 0 -- -- 31
2020-07-04 22:00:00 30.8 5 Noroeste 8 Noroeste 0 -- -- 26
2020-07-04 21:00:00 35.4 4 Este 13 Nordeste 0 -- -- 21
2020-07-04 20:00:00 36 4 Nordeste 14 Norte 0 -- -- 18
2020-07-04 19:00:00 36.4 5 Nordeste 18 Nordeste 0 -- -- 17
2020-07-04 18:00:00 35.7 9 Norte 22 Nordeste 0 -- -- 19
2020-07-04 17:00:00 35.5 9 Nordeste 21 Nordeste 0 -- -- 19
2020-07-04 16:00:00 35.6 5 Este 20 Este 0 -- -- 17
2020-07-04 15:00:00 34 6 Norte 17 Nordeste 0 -- -- 19
2020-07-04 14:00:00 33.6 8 Nordeste 16 Norte 0 -- -- 20
2020-07-04 13:00:00 32.8 8 Nordeste 17 Este 0 -- -- 22
2020-07-04 12:00:00 30.6 4 Sudoeste 11 Sudoeste 0 -- -- 25
2020-07-04 11:00:00 28.5 4 Sudoeste 8 Sur 0 -- -- 28
2020-07-04 10:00:00 26.6 5 Este 15 Nordeste 0 -- -- 31
2020-07-04 09:00:00 24.6 9 Nordeste 17 Norte 0 -- -- 34
2020-07-04 08:00:00 22.4 11 Norte 19 Norte 0 -- -- 37
2020-07-04 07:00:00 21.5 7 Nordeste 24 Norte 0 -- -- 37
2020-07-04 06:00:00 22.4 16 Norte 26 Norte 0 -- -- 35
2020-07-04 05:00:00 22.8 14 Norte 29 Norte 0 -- -- 34
2020-07-04 04:00:00 22.9 16 Norte 30 Norte 0 -- -- 34
2020-07-04 03:00:00 23.9 18 Norte 33 Norte 0 -- -- 33
2020-07-04 02:00:00 24.3 16 Norte 25 Nordeste 0 -- -- 32
2020-07-04 01:00:00 24.8 13 Norte 20 Norte 0 -- -- 32
2020-07-04 00:00:00 25 11 Norte 16 Norte 0 -- -- 33
2020-07-03 23:00:00 25.7 8 Norte 14 Nordeste 0 -- -- 34
2020-07-03 22:00:00 29 0 Calma 12 Sudoeste 0 -- -- 31
2020-07-03 21:00:00 32.3 10 Oeste 21 Oeste 0 -- -- 24
2020-07-03 20:00:00 33.3 11 Sudoeste 21 Sudoeste 0 -- -- 22
2020-07-03 19:00:00 33.7 5 Noroeste 16 Sudoeste 0 -- -- 18
2020-07-03 18:00:00 33.5 6 Sur 16 Sur 0 -- -- 17
2020-07-03 17:00:00 32.7 8 Noroeste 19 Norte 0 -- -- 19
2020-07-03 16:00:00 32 11 Nordeste 22 Nordeste 0 -- -- 22
2020-07-03 15:00:00 30.9 4 Sur 19 Nordeste 0 -- -- 26
2020-07-03 14:00:00 28.9 6 Noroeste 17 Norte 0 -- -- 30
2020-07-03 13:00:00 27.7 4 Sur 12 Nordeste 0 -- -- 32
2020-07-03 12:00:00 25.6 2 Sudoeste 13 Nordeste 0 -- -- 38
2020-07-03 11:00:00 23.2 9 Nordeste 23 Norte 0 -- -- 45
2020-07-03 10:00:00 20.5 14 Norte 25 Norte 0 -- -- 51
2020-07-03 09:00:00 18.4 15 Norte 30 Norte 0 -- -- 57
2020-07-03 08:00:00 16.9 17 Norte 33 Norte 0 -- -- 63
2020-07-03 07:00:00 17 13 Norte 29 Norte 0 -- -- 63
2020-07-03 06:00:00 18 16 Norte 31 Norte 0 -- -- 56
2020-07-03 05:00:00 18.6 16 Norte 30 Norte 0 -- -- 51
2020-07-03 04:00:00 19.1 14 Norte 26 Norte 0 -- -- 50
2020-07-03 03:00:00 20 16 Norte 29 Norte 0 -- -- 47
2020-07-03 02:00:00 21.1 17 Norte 29 Norte 0 -- -- 45
2020-07-03 01:00:00 22 11 Nordeste 19 Nordeste 0 -- -- 43
2020-07-03 00:00:00 21.3 8 Norte 13 Norte 0 -- -- 41
2020-07-02 23:00:00 23.7 6 Norte 18 Norte 0 -- -- 36
2020-07-02 22:00:00 25.2 8 Noroeste 22 Noroeste 0 -- -- 30
2020-07-02 21:00:00 27.8 14 Noroeste 27 Noroeste 0 -- -- 27
2020-07-02 20:00:00 29.8 13 Noroeste 27 Norte 0 -- -- 27
2020-07-02 19:00:00 30.5 16 Noroeste 30 Oeste 0 -- -- 26
2020-07-02 18:00:00 31 14 Oeste 30 Oeste 0 -- -- 28
2020-07-02 17:00:00 31.9 13 Sudoeste 31 Sudoeste 0 -- -- 29
2020-07-02 16:00:00 31.3 13 Oeste 30 Oeste 0 -- -- 28
2020-07-02 15:00:00 30.4 10 Oeste 30 Sudoeste 0 -- -- 33
2020-07-02 14:00:00 30.1 14 Sudoeste 31 Oeste 0 -- -- 33
2020-07-02 13:00:00 28.9 9 Oeste 20 Noroeste 0 -- -- 36
2020-07-02 12:00:00 26.8 6 Norte 24 Norte 0 -- -- 41
2020-07-02 11:00:00 25 17 Norte 27 Norte 0 -- -- 48
2020-07-02 10:00:00 23.3 16 Norte 28 Norte 0 -- -- 53
2020-07-02 09:00:00 21.8 16 Norte 33 Norte 0 -- -- 58
2020-07-02 08:00:00 20.7 17 Norte 27 Norte 0 -- -- 63
2020-07-02 07:00:00 20.1 18 Norte 30 Norte 0 -- -- 65
2020-07-02 06:00:00 20.5 15 Norte 29 Norte 0 -- -- 63
2020-07-02 05:00:00 21.3 17 Norte 29 Norte 0 -- -- 60
2020-07-02 04:00:00 22.2 17 Norte 29 Norte 0 -- -- 56
2020-07-02 03:00:00 23 14 Norte 25 Nordeste 0 -- -- 53
2020-07-02 02:00:00 23.3 9 Norte 20 Norte 0 -- -- 52
2020-07-02 01:00:00 24.7 12 Nordeste 24 Nordeste 0 -- -- 48
2020-07-02 00:00:00 24.9 8 Nordeste 14 Nordeste 0 -- -- 49
2020-07-01 23:00:00 26.6 6 Noroeste 16 Noroeste 0 -- -- 41
2020-07-01 22:00:00 28.6 8 Noroeste 24 Noroeste 0 -- -- 36
2020-07-01 21:00:00 32.3 6 Oeste 26 Oeste 0 -- -- 30
2020-07-01 20:00:00 34.4 14 Oeste 30 Sudoeste 0 -- -- 25
2020-07-01 19:00:00 35 13 Sudoeste 27 Sudoeste 0 -- -- 24
2020-07-01 18:00:00 34.2 8 Oeste 28 Sudoeste 0 -- -- 26
2020-07-01 17:00:00 35 8 Oeste 27 Sudoeste 0 -- -- 24
2020-07-01 16:00:00 34 15 Sudoeste 31 Sudoeste 0 -- -- 30
2020-07-01 15:00:00 33.2 10 Sur 28 Sudoeste 0 -- -- 34
2020-07-01 14:00:00 31.8 11 Sudoeste 20 Sudoeste 0 -- -- 39
2020-07-01 13:00:00 30.3 9 Oeste 20 Sudoeste 0 -- -- 40
2020-07-01 12:00:00 28.8 4 Nordeste 14 Sudoeste 0 -- -- 44
2020-07-01 11:00:00 27.2 3 Noroeste 9 Oeste 0 -- -- 51
2020-07-01 10:00:00 23.7 4 Sur 10 Sudoeste 0 -- -- 58
2020-07-01 09:00:00 21.5 4 Sudoeste 9 Sur 0 -- -- 67
2020-07-01 08:00:00 18.7 2 Nordeste 10 Este 0 -- -- 73
2020-07-01 07:00:00 17.2 3 Este 8 Sur 0 -- -- 72
2020-07-01 06:00:00 18.6 6 Sur 8 Sur 0 -- -- 68
2020-07-01 05:00:00 19.9 6 Sur 10 Sur 0 -- -- 58
2020-07-01 04:00:00 18.9 5 Noroeste 6 Noroeste 0 -- -- 66
2020-07-01 03:00:00 21 2 Norte 10 Este 0 -- -- 53
2020-07-01 02:00:00 22.2 5 Nordeste 10 Este 0 -- -- 51
2020-07-01 01:00:00 23.6 5 Nordeste 10 Sur 0 -- -- 47
2020-07-01 00:00:00 25.8 8 Sur 13 Sudoeste 0 -- -- 42
2020-06-30 23:00:00 28.1 8 Sudoeste 18 Sudoeste 0 -- -- 34
2020-06-30 22:00:00 30.8 11 Oeste 24 Sudoeste 0 -- -- 27
2020-06-30 21:00:00 34 13 Oeste 31 Sudoeste 0 -- -- 25
2020-06-30 20:00:00 35.4 15 Oeste 36 Sudoeste 0 -- -- 25
2020-06-30 19:00:00 36.5 18 Sudoeste 35 Sudoeste 0 -- -- 24
2020-06-30 18:00:00 36.6 11 Oeste 36 Sudoeste 0 -- -- 23
2020-06-30 17:00:00 37.2 19 Sudoeste 35 Sudoeste 0 -- -- 21
2020-06-30 16:00:00 36.7 17 Sudoeste 35 Sudoeste 0 -- -- 23
2020-06-30 15:00:00 36.1 17 Sudoeste 31 Sudoeste 0 -- -- 26
2020-06-30 14:00:00 35.4 14 Sur 25 Sur 0 -- -- 24
2020-06-30 13:00:00 34.6 10 Oeste 24 Oeste 0 -- -- 27
2020-06-30 12:00:00 32 4 Sudoeste 13 Sudoeste 0 -- -- 33
2020-06-30 11:00:00 30.5 4 Sur 11 Este 0 -- -- 36
2020-06-30 10:00:00 28.3 6 Este 12 Nordeste 0 -- -- 40
2020-06-30 09:00:00 25.4 7 Norte 13 Nordeste 0 -- -- 46
2020-06-30 08:00:00 23.1 7 Nordeste 15 Nordeste 0 -- -- 55
2020-06-30 07:00:00 22.6 6 Nordeste 19 Nordeste 0 -- -- 53
2020-06-30 06:00:00 21.5 6 Nordeste 10 Nordeste 0 -- -- 58
2020-06-30 05:00:00 23.4 4 Nordeste 13 Nordeste 0 -- -- 50
2020-06-30 04:00:00 25.9 9 Norte 18 Nordeste 0 -- -- 42
2020-06-30 03:00:00 26.3 10 Norte 19 Norte 0 -- -- 41
2020-06-30 02:00:00 26 12 Norte 18 Nordeste 0 -- -- 43
2020-06-30 01:00:00 26.1 9 Nordeste 19 Norte 0 -- -- 45
2020-06-30 00:00:00 26.8 7 Nordeste 14 Nordeste 0 -- -- 40
2020-06-29 23:00:00 28 7 Nordeste 11 Este 0 -- -- 37
2020-06-29 22:00:00 31.8 6 Noroeste 7 Oeste 0 -- -- 30
2020-06-29 21:00:00 36.1 3 Oeste 13 Sudoeste 0 -- -- 25
2020-06-29 20:00:00 36.5 6 Sudoeste 12 Sudoeste 0 -- -- 23
2020-06-29 19:00:00 36.5 8 Sudoeste 17 Sudoeste 0 -- -- 22
2020-06-29 18:00:00 36.6 8 Sudoeste 20 Sur 0 -- -- 24
2020-06-29 17:00:00 35.7 11 Sudoeste 27 Sudoeste 0 -- -- 22
2020-06-29 16:00:00 35.5 10 Sur 27 Sudoeste 0 -- -- 25
2020-06-29 15:00:00 34.8 12 Sur 25 Sur 0 -- -- 29
2020-06-29 14:00:00 33.6 10 Oeste 18 Sudoeste 0 -- -- 31
2020-06-29 13:00:00 32 5 Oeste 12 Norte 0 -- -- 34
2020-06-29 12:00:00 30 4 Noroeste 15 Norte 0 -- -- 38
2020-06-29 11:00:00 28.1 11 Norte 24 Norte 0 -- -- 45
2020-06-29 10:00:00 25.6 15 Norte 28 Norte 0 -- -- 51
2020-06-29 09:00:00 24.3 12 Norte 27 Norte 0 -- -- 54
2020-06-29 08:00:00 22.3 17 Norte 30 Norte 0 -- -- 60
2020-06-29 07:00:00 21.5 18 Norte 29 Norte 0 -- -- 62
2020-06-29 06:00:00 21.7 18 Norte 28 Norte 0 -- -- 61
2020-06-29 05:00:00 22.3 15 Norte 26 Norte 0 -- -- 59
2020-06-29 04:00:00 22.8 13 Norte 28 Norte 0 -- -- 59
2020-06-29 03:00:00 23.6 14 Norte 28 Norte 0 -- -- 57
2020-06-29 02:00:00 24.8 15 Norte 27 Nordeste 0 -- -- 54
2020-06-29 01:00:00 26 14 Nordeste 27 Nordeste 0 -- -- 50
2020-06-29 00:00:00 26.9 14 Nordeste 23 Nordeste 0 -- -- 48
2020-06-28 23:00:00 26.9 4 Nordeste 12 Noroeste 0 -- -- 44
2020-06-28 22:00:00 28.7 8 Noroeste 17 Noroeste 0 -- -- 40
2020-06-28 21:00:00 31.9 12 Noroeste 23 Noroeste 0 -- -- 33
2020-06-28 20:00:00 33.4 13 Noroeste 29 Sudoeste 0 -- -- 29
2020-06-28 19:00:00 34.7 10 Oeste 27 Sudoeste 0 -- -- 29
2020-06-28 18:00:00 34.6 9 Oeste 19 Noroeste 0 -- -- 30
2020-06-28 17:00:00 34.5 5 Sur 17 Este 0 -- -- 29
2020-06-28 16:00:00 33.4 5 Oeste 19 Norte 0 -- -- 30
2020-06-28 15:00:00 32.1 5 Noroeste 21 Noroeste 0 -- -- 32
2020-06-28 14:00:00 30.8 9 Noroeste 20 Nordeste 0 -- -- 37
2020-06-28 13:00:00 29.9 8 Norte 24 Norte 0 -- -- 40
2020-06-28 12:00:00 28 18 Norte 28 Norte 0 -- -- 43
2020-06-28 11:00:00 26.3 14 Norte 25 Norte 0 -- -- 50
2020-06-28 10:00:00 24.5 14 Norte 27 Norte 0 -- -- 55
2020-06-28 09:00:00 22.5 16 Norte 26 Norte 0 -- -- 60
2020-06-28 08:00:00 21.1 17 Norte 30 Norte 0 -- -- 64
2020-06-28 07:00:00 20 15 Norte 25 Nordeste 0 -- -- 68
2020-06-28 06:00:00 20.4 15 Norte 27 Nordeste 0 -- -- 67
2020-06-28 05:00:00 20.9 14 Norte 29 Nordeste 0 -- -- 65
2020-06-28 04:00:00 21.4 13 Norte 25 Nordeste 0 -- -- 63
2020-06-28 03:00:00 22.2 11 Nordeste 21 Nordeste 0 -- -- 61
2020-06-28 02:00:00 23.1 13 Nordeste 23 Nordeste 0 -- -- 57
2020-06-28 01:00:00 23.8 13 Nordeste 20 Nordeste 0 -- -- 53
2020-06-28 00:00:00 24.4 11 Nordeste 20 Nordeste 0 -- -- 50
2020-06-27 23:00:00 23.8 5 Norte 10 Norte 0 -- -- 53
2020-06-27 22:00:00 26.2 8 Norte 19 Noroeste 0 -- -- 45
2020-06-27 21:00:00 28.7 12 Noroeste 21 Noroeste 0 -- -- 40
2020-06-27 20:00:00 29.9 13 Noroeste 27 Noroeste 0 -- -- 37
2020-06-27 19:00:00 30.9 15 Noroeste 28 Noroeste 0 -- -- 36
2020-06-27 18:00:00 30.5 5 Norte 20 Norte 0 -- -- 35
2020-06-27 17:00:00 32.1 11 Oeste 24 Noroeste 0 -- -- 32
2020-06-27 16:00:00 31.4 9 Oeste 24 Sur 0 -- -- 31
2020-06-27 15:00:00 30.2 11 Sudoeste 22 Sudoeste 0 -- -- 36
2020-06-27 14:00:00 29.1 11 Sur 22 Sur 0 -- -- 39
2020-06-27 13:00:00 27.9 5 Sudoeste 17 Norte 0 -- -- 42
2020-06-27 12:00:00 25.7 7 Noroeste 18 Norte 0 -- -- 47
2020-06-27 11:00:00 23.8 13 Norte 26 Norte 0 -- -- 52
2020-06-27 10:00:00 22.3 15 Norte 26 Norte 0 -- -- 56
2020-06-27 09:00:00 20.7 16 Norte 28 Norte 0 -- -- 61
2020-06-27 08:00:00 19.3 15 Norte 25 Nordeste 0 -- -- 66
2020-06-27 07:00:00 18.8 15 Norte 25 Nordeste 0 -- -- 66
2020-06-27 06:00:00 19 14 Norte 27 Norte 0 -- -- 65
2020-06-27 05:00:00 19.3 14 Norte 27 Norte 0 -- -- 65
2020-06-27 04:00:00 19.8 14 Norte 24 Norte 0 -- -- 63
2020-06-27 03:00:00 19.6 8 Norte 17 Norte 0 -- -- 64
2020-06-27 02:00:00 20.4 5 Norte 14 Nordeste 0 -- -- 63
2020-06-27 01:00:00 21.2 7 Nordeste 11 Nordeste 0 -- -- 62
2020-06-27 00:00:00 22.3 5 Noroeste 11 Norte 0 -- -- 53
2020-06-26 23:00:00 23.3 4 Noroeste 11 Noroeste 0 -- -- 46
2020-06-26 22:00:00 25.3 8 Noroeste 21 Oeste 0 -- -- 38
2020-06-26 21:00:00 29.3 9 Oeste 28 Sudoeste 0 -- -- 30
2020-06-26 20:00:00 29.4 15 Sudoeste 28 Sudoeste 0 -- -- 30
2020-06-26 19:00:00 28.9 18 Sudoeste 28 Sudoeste 0 -- -- 31
2020-06-26 18:00:00 29.3 13 Sur 26 Sudoeste 0 -- -- 28
2020-06-26 17:00:00 29.4 14 Sudoeste 27 Sudoeste 0 -- -- 30
2020-06-26 16:00:00 28.9 13 Sur 27 Sudoeste 0 -- -- 33
2020-06-26 15:00:00 28.1 11 Sur 29 Sur 0 -- -- 39
2020-06-26 14:00:00 26.6 11 Sur 24 Sudoeste 0 -- -- 44
2020-06-26 13:00:00 25.2 12 Sudoeste 20 Sur 0 -- -- 45
2020-06-26 12:00:00 23.7 6 Sudoeste 13 Oeste 0 -- -- 50
2020-06-26 11:00:00 20.9 4 Sudoeste 11 Sur 0 -- -- 59
2020-06-26 10:00:00 19.9 5 Sudeste 9 Sudoeste 0 -- -- 62
2020-06-26 09:00:00 17.2 6 Sur 10 Sudoeste 0 -- -- 72
2020-06-26 08:00:00 14.8 8 Sudoeste 12 Sudoeste 0 -- -- 81
2020-06-26 07:00:00 14 5 Sudeste 6 Sudeste 0 -- -- 84
2020-06-26 06:00:00 15.4 2 Sur 10 Sur 0 -- -- 78
2020-06-26 05:00:00 17.4 5 Sur 11 Sur 0 -- -- 73
2020-06-26 04:00:00 18.1 6 Sudeste 9 Sur 0 -- -- 70
2020-06-26 03:00:00 18.8 0 Calma 10 Sur 0 -- -- 67
2020-06-26 02:00:00 21.5 7 Sur 13 Sur 0 -- -- 58
2020-06-26 01:00:00 22.1 4 Este 10 Sudoeste 0 -- -- 56
2020-06-26 00:00:00 24.2 8 Sudoeste 17 Sudoeste 0 -- -- 50
2020-06-25 23:00:00 26.4 6 Sudoeste 9 Sudoeste 0 -- -- 44
2020-06-25 22:00:00 29.2 5 Sudoeste 17 Sudoeste 0 -- -- 37
2020-06-25 21:00:00 32.1 9 Sudoeste 25 Sudoeste 0 -- -- 30
2020-06-25 20:00:00 32.5 15 Sudoeste 30 Sudoeste 0 -- -- 29
2020-06-25 19:00:00 33.2 15 Sudoeste 31 Sudoeste 0 -- -- 27
2020-06-25 18:00:00 33.4 12 Sudoeste 31 Sudoeste 0 -- -- 27
2020-06-25 17:00:00 33.4 15 Sudoeste 33 Sudoeste 0 -- -- 27
2020-06-25 16:00:00 33 17 Sudoeste 32 Sudoeste 0 -- -- 28
2020-06-25 15:00:00 32.3 12 Sur 31 Sudoeste 0 -- -- 29
2020-06-25 14:00:00 31.3 15 Sudoeste 27 Sur 0 -- -- 33
2020-06-25 13:00:00 30.8 12 Sur 24 Sur 0 -- -- 32
2020-06-25 12:00:00 29.7 10 Sudoeste 21 Sudoeste 0 -- -- 36
2020-06-25 11:00:00 27.4 10 Sur 17 Sudoeste 0 -- -- 46
2020-06-25 10:00:00 24.3 9 Sudoeste 21 Sudoeste 0 -- -- 57
2020-06-25 09:00:00 22.1 12 Sudoeste 18 Sudoeste 0 -- -- 62
2020-06-25 08:00:00 19.9 4 Sudoeste 9 Sur 0 -- -- 66
2020-06-25 07:00:00 19.2 4 Sudoeste 8 Sudoeste 0 -- -- 68
2020-06-25 06:00:00 19.6 4 Este 8 Sur 0 -- -- 68
2020-06-25 05:00:00 19.8 3 Nordeste 10 Sur 0 -- -- 68
2020-06-25 04:00:00 22.3 6 Nordeste 12 Norte 0 -- -- 62
2020-06-25 03:00:00 22 4 Nordeste 8 Nordeste 0 -- -- 63
2020-06-25 02:00:00 22.9 4 Este 6 Este 0 -- -- 55
2020-06-25 01:00:00 24.2 5 Norte 10 Norte 0 -- -- 54
2020-06-25 00:00:00 26.4 2 Sudeste 8 Este 0 -- -- 40
2020-06-24 23:00:00 27.9 5 Sudoeste 7 Sudoeste 0 -- -- 37
2020-06-24 22:00:00 30.4 4 Sudoeste 18 Oeste 0 -- -- 33
2020-06-24 21:00:00 32.9 11 Oeste 25 Oeste 0 -- -- 29
2020-06-24 20:00:00 34.5 15 Oeste 28 Sudoeste 0 -- -- 27
2020-06-24 19:00:00 35.3 14 Sudoeste 39 Sudoeste 0 -- -- 26
2020-06-24 18:00:00 35.1 20 Sudoeste 36 Sudoeste 0 -- -- 28
2020-06-24 17:00:00 35.6 21 Sudoeste 38 Sudoeste 0 -- -- 29
2020-06-24 16:00:00 35.6 16 Sur 28 Sudeste 0 -- -- 29
2020-06-24 15:00:00 35 10 Sur 28 Sudeste 0 -- -- 29
2020-06-24 14:00:00 34.3 15 Sur 35 Sur 0 -- -- 30
2020-06-24 13:00:00 33.2 20 Sur 33 Sur 0 -- -- 31
2020-06-24 12:00:00 31.8 15 Sur 23 Sudeste 0 -- -- 34
2020-06-24 11:00:00 29 11 Sur 19 Sudeste 0 -- -- 40
2020-06-24 10:00:00 26.9 6 Sudoeste 15 Sudoeste 0 -- -- 49
2020-06-24 09:00:00 24.7 6 Oeste 12 Oeste 0 -- -- 55
2020-06-24 08:00:00 22.9 10 Sudoeste 24 Oeste 0 -- -- 56
2020-06-24 07:00:00 23.3 10 Sudoeste 17 Sudoeste 0 -- -- 52
2020-06-24 06:00:00 22.6 4 Este 17 Norte 0 -- -- 55
2020-06-24 05:00:00 23.2 10 Nordeste 21 Nordeste 0 -- -- 55
2020-06-24 04:00:00 23.7 9 Nordeste 13 Norte 0 -- -- 54
2020-06-24 03:00:00 24.9 8 Norte 17 Norte 0 -- -- 48
2020-06-24 02:00:00 24.5 8 Nordeste 13 Nordeste 0 -- -- 50
2020-06-24 01:00:00 23.6 3 Norte 5 Nordeste 0 -- -- 48
2020-06-24 00:00:00 25.4 4 Nordeste 6 Nordeste 0 -- -- 45
2020-06-23 23:00:00 27.9 4 Nordeste 9 Nordeste 0 -- -- 40
2020-06-23 22:00:00 29.9 4 Nordeste 6 Sudeste 0 -- -- 35
2020-06-23 21:00:00 34.9 4 Sudeste 9 Sudeste 0 -- -- 26
2020-06-23 20:00:00 36.5 5 Sudeste 17 Este 0 -- -- 22
2020-06-23 19:00:00 38 9 Sudeste 21 Este 0 -- -- 20
2020-06-23 18:00:00 38.3 8 Sudoeste 26 Sudeste 0 -- -- 19
2020-06-23 17:00:00 38.5 11 Este 28 Sudeste 0 -- -- 20
2020-06-23 16:00:00 37.6 9 Sur 27 Sur 0 -- -- 19
2020-06-23 15:00:00 37.1 14 Sur 28 Sudeste 0 -- -- 20
2020-06-23 14:00:00 36.4 14 Sudeste 36 Sur 0 -- -- 22
2020-06-23 13:00:00 36.1 11 Sur 24 Sudeste 0 -- -- 22
2020-06-23 12:00:00 33.9 6 Sur 18 Sudeste 0 -- -- 27
2020-06-23 11:00:00 30.4 4 Nordeste 9 Este 0 -- -- 31
2020-06-23 10:00:00 27.5 3 Norte 9 Sudeste 0 -- -- 36
2020-06-23 09:00:00 24.6 3 Sur 12 Nordeste 0 -- -- 45
2020-06-23 08:00:00 22.4 6 Nordeste 18 Nordeste 0 -- -- 49
2020-06-23 07:00:00 20.8 8 Nordeste 15 Nordeste 0 -- -- 53
2020-06-23 06:00:00 22.5 6 Nordeste 16 Nordeste 0 -- -- 45
2020-06-23 05:00:00 23.7 7 Nordeste 17 Norte 0 -- -- 44
2020-06-23 04:00:00 25.5 9 Norte 15 Nordeste 0 -- -- 35
2020-06-23 03:00:00 26.1 10 Norte 22 Norte 0 -- -- 35
2020-06-23 02:00:00 26.6 14 Norte 23 Norte 0 -- -- 37
2020-06-23 01:00:00 26.5 9 Norte 17 Norte 0 -- -- 38
2020-06-23 00:00:00 27.1 10 Nordeste 16 Nordeste 0 -- -- 37
2020-06-22 23:00:00 27.2 5 Nordeste 10 Nordeste 0 -- -- 34
2020-06-22 22:00:00 30.7 6 Nordeste 11 Este 0 -- -- 27
2020-06-22 21:00:00 34.9 5 Norte 12 Norte 0 -- -- 22
2020-06-22 20:00:00 35.8 8 Norte 16 Noroeste 0 -- -- 18
2020-06-22 19:00:00 37 5 Norte 18 Este 0 -- -- 17
2020-06-22 18:00:00 37.1 5 Este 23 Sudeste 0 -- -- 18
2020-06-22 17:00:00 36.9 4 Norte 22 Sudeste 0 -- -- 20
2020-06-22 16:00:00 36.6 10 Este 27 Sur 0 -- -- 19
2020-06-22 15:00:00 36.4 11 Sur 22 Sudeste 0 -- -- 20
2020-06-22 14:00:00 35 5 Sudeste 20 Nordeste 0 -- -- 23
2020-06-22 13:00:00 32.1 8 Norte 16 Nordeste 0 -- -- 28
2020-06-22 12:00:00 29.8 4 Norte 12 Norte 0 -- -- 32
2020-06-22 11:00:00 27.8 6 Nordeste 20 Norte 0 -- -- 38
2020-06-22 10:00:00 24.6 14 Norte 24 Norte 0 -- -- 46
2020-06-22 09:00:00 22.8 13 Norte 24 Nordeste 0 -- -- 53
2020-06-22 08:00:00 21.2 16 Norte 26 Norte 0 -- -- 58
2020-06-22 07:00:00 21.1 12 Norte 24 Norte 0 -- -- 58
2020-06-22 06:00:00 22.3 7 Nordeste 19 Nordeste 0 -- -- 56
2020-06-22 05:00:00 23 12 Norte 27 Norte 0 -- -- 54
2020-06-22 04:00:00 23.6 18 Norte 29 Nordeste 0 -- -- 53
2020-06-22 03:00:00 24.2 16 Norte 31 Nordeste 0 -- -- 50
2020-06-22 02:00:00 24.4 14 Nordeste 25 Nordeste 0 -- -- 51
2020-06-22 01:00:00 23.8 7 Nordeste 16 Nordeste 0 -- -- 49
2020-06-22 00:00:00 25.5 10 Nordeste 17 Nordeste 0 -- -- 40
2020-06-21 23:00:00 26.2 8 Nordeste 14 Norte 0 -- -- 34
2020-06-21 22:00:00 28.2 10 Norte 22 Norte 0 -- -- 27
2020-06-21 21:00:00 31.1 14 Norte 27 Norte 0 -- -- 23
2020-06-21 20:00:00 32.6 14 Norte 23 Norte 0 -- -- 24
2020-06-21 19:00:00 33.9 9 Norte 19 Nordeste 0 -- -- 23
2020-06-21 18:00:00 34.6 8 Este 20 Norte 0 -- -- 19
2020-06-21 17:00:00 34.2 8 Este 18 Noroeste 0 -- -- 19
2020-06-21 16:00:00 33.2 8 Norte 23 Este 0 -- -- 18
2020-06-21 15:00:00 32.5 5 Norte 19 Nordeste 0 -- -- 19
2020-06-21 14:00:00 31.3 10 Nordeste 20 Nordeste 0 -- -- 20
2020-06-21 13:00:00 29.4 15 Norte 29 Norte 0 -- -- 24
2020-06-21 12:00:00 27.4 20 Norte 32 Norte 0 -- -- 29
2020-06-21 11:00:00 25.1 19 Norte 32 Norte 0 -- -- 41
2020-06-21 10:00:00 23.2 17 Norte 33 Norte 0 -- -- 47
2020-06-21 09:00:00 21.1 19 Norte 33 Norte 0 -- -- 52
2020-06-21 08:00:00 19.7 18 Norte 33 Norte 0 -- -- 55
2020-06-21 07:00:00 19 19 Norte 31 Norte 0 -- -- 55
2020-06-21 06:00:00 19.4 17 Norte 27 Norte 0 -- -- 54
2020-06-21 05:00:00 19.8 13 Norte 28 Norte 0 -- -- 55
2020-06-21 04:00:00 20.8 17 Nordeste 30 Norte 0 -- -- 53
2020-06-21 03:00:00 21.5 17 Norte 28 Norte 0 -- -- 53
2020-06-21 02:00:00 22.4 13 Nordeste 26 Nordeste 0 -- -- 53
2020-06-21 01:00:00 22.8 10 Nordeste 15 Nordeste 0 -- -- 51
2020-06-21 00:00:00 22.7 5 Nordeste 9 Norte 0 -- -- 46
2020-06-20 23:00:00 24.7 8 Norte 15 Norte 0 -- -- 41
2020-06-20 22:00:00 27.3 10 Noroeste 17 Noroeste 0 -- -- 35
2020-06-20 21:00:00 31.4 9 Sudoeste 18 Sudoeste 0 -- -- 25
2020-06-20 20:00:00 32.3 10 Sudoeste 19 Sudoeste 0 -- -- 22
2020-06-20 19:00:00 32.6 9 Sudoeste 25 Oeste 0 -- -- 21
2020-06-20 18:00:00 32.3 8 Oeste 30 Sudoeste 0 -- -- 23
2020-06-20 17:00:00 31.9 8 Sur 26 Sudoeste 0 -- -- 26
2020-06-20 16:00:00 31.3 13 Sudoeste 31 Sur 0 -- -- 27
2020-06-20 15:00:00 31 12 Sudoeste 24 Sur 0 -- -- 29
2020-06-20 14:00:00 30.3 10 Sur 21 Sur 0 -- -- 29
2020-06-20 13:00:00 28.7 5 Sudoeste 22 Sudoeste 0 -- -- 32
2020-06-20 12:00:00 27.3 4 Nordeste 14 Norte 0 -- -- 35
2020-06-20 11:00:00 25.2 5 Norte 13 Norte 0 -- -- 40
2020-06-20 10:00:00 23.4 8 Norte 20 Norte 0 -- -- 45
2020-06-20 09:00:00 21.4 12 Nordeste 22 Norte 0 -- -- 50
2020-06-20 08:00:00 19.5 12 Norte 24 Norte 0 -- -- 56
2020-06-20 07:00:00 18.5 14 Norte 22 Nordeste 0 -- -- 58
2020-06-20 06:00:00 18.6 12 Norte 21 Nordeste 0 -- -- 58
2020-06-20 05:00:00 19.4 14 Norte 25 Norte 0 -- -- 54
2020-06-20 04:00:00 19.6 13 Norte 26 Norte 0 -- -- 54
2020-06-20 03:00:00 20.3 13 Norte 21 Nordeste 0 -- -- 53
2020-06-20 02:00:00 20.5 9 Norte 15 Norte 0 -- -- 55
2020-06-20 01:00:00 20.7 8 Nordeste 12 Nordeste 0 -- -- 53
2020-06-20 00:00:00 20.8 4 Norte 9 Norte 0 -- -- 44
2020-06-19 23:00:00 23.2 4 Norte 12 Noroeste 0 -- -- 36
2020-06-19 22:00:00 25.9 8 Noroeste 15 Sudoeste 0 -- -- 30
2020-06-19 21:00:00 29 12 Sudoeste 24 Sudoeste 0 -- -- 24
2020-06-19 20:00:00 30.1 12 Sudoeste 25 Sudoeste 0 -- -- 25
2020-06-19 19:00:00 30.5 10 Sudoeste 22 Sudoeste 0 -- -- 23
2020-06-19 18:00:00 30.5 12 Sudoeste 25 Oeste 0 -- -- 22
2020-06-19 17:00:00 30.2 7 Sudoeste 26 Sudoeste 0 -- -- 28
2020-06-19 16:00:00 29.4 13 Sur 29 Sudoeste 0 -- -- 29
2020-06-19 15:00:00 28.5 15 Sur 28 Sudoeste 0 -- -- 33
2020-06-19 14:00:00 27.6 14 Sur 24 Sur 0 -- -- 35
2020-06-19 13:00:00 26.8 11 Sudoeste 26 Sudoeste 0 -- -- 38
2020-06-19 12:00:00 25.6 5 Sur 13 Sur 0 -- -- 37
2020-06-19 11:00:00 23.5 5 Norte 14 Norte 0 -- -- 41
2020-06-19 10:00:00 21.3 11 Norte 22 Norte 0 -- -- 48
2020-06-19 09:00:00 19.5 12 Norte 25 Norte 0 -- -- 54
2020-06-19 08:00:00 17.6 13 Norte 23 Norte 0 -- -- 59
2020-06-19 07:00:00 16.4 14 Norte 23 Norte 0 -- -- 63
2020-06-19 06:00:00 17 15 Norte 30 Norte 0 -- -- 60
2020-06-19 05:00:00 17.5 17 Norte 27 Norte 0 -- -- 58
2020-06-19 04:00:00 18.2 14 Norte 26 Norte 0 -- -- 56
2020-06-19 03:00:00 19.2 14 Nordeste 28 Nordeste 0 -- -- 52
2020-06-19 02:00:00 19.9 12 Nordeste 20 Nordeste 0 -- -- 50
2020-06-19 01:00:00 19.7 9 Norte 14 Norte 0 -- -- 51
2020-06-19 00:00:00 19.6 7 Norte 10 Nordeste 0 -- -- 52
2020-06-18 23:00:00 21.5 4 Norte 12 Noroeste 0 -- -- 42
2020-06-18 22:00:00 23.7 6 Noroeste 20 Noroeste 0 -- -- 37
2020-06-18 21:00:00 26.8 11 Noroeste 23 Oeste 0 -- -- 31
2020-06-18 20:00:00 28.1 10 Oeste 23 Noroeste 0 -- -- 29
2020-06-18 19:00:00 28.5 5 Sudoeste 25 Oeste 0 -- -- 30
2020-06-18 18:00:00 29 10 Oeste 29 Sudoeste 0 -- -- 29
2020-06-18 17:00:00 28.8 13 Oeste 34 Sur 0 -- -- 31
2020-06-18 16:00:00 28.9 9 Sur 29 Sur 0 -- -- 32
2020-06-18 15:00:00 27.6 12 Sudoeste 26 Oeste 0 -- -- 34
2020-06-18 14:00:00 27.3 12 Sudoeste 25 Oeste 0 -- -- 34
2020-06-18 13:00:00 26.2 10 Sudoeste 16 Sudoeste 0 -- -- 35
2020-06-18 12:00:00 24.1 6 Norte 17 Norte 0 -- -- 39
2020-06-18 11:00:00 22.4 11 Norte 24 Norte 0 -- -- 45
2020-06-18 10:00:00 20.1 14 Norte 23 Norte 0 -- -- 51
2020-06-18 09:00:00 18.4 14 Norte 28 Norte 0 -- -- 55
2020-06-18 08:00:00 16.8 15 Norte 27 Norte 0 -- -- 59
2020-06-18 07:00:00 16.2 14 Norte 24 Norte 0 -- -- 60
2020-06-18 06:00:00 16.5 12 Norte 23 Nordeste 0 -- -- 60
2020-06-18 05:00:00 17.2 12 Norte 23 Nordeste 0 -- -- 58
2020-06-18 04:00:00 17.9 12 Norte 19 Norte 0 -- -- 56
2020-06-18 03:00:00 19 11 Nordeste 18 Nordeste 0 -- -- 54
2020-06-18 02:00:00 19.7 10 Nordeste 21 Norte 0 -- -- 51
2020-06-18 01:00:00 18.1 4 Norte 5 Nordeste 0 -- -- 55
2020-06-18 00:00:00 19.7 3 Norte 7 Norte 0 -- -- 47
2020-06-17 23:00:00 20.7 4 Norte 12 Noroeste 0 -- -- 43
2020-06-17 22:00:00 21.8 8 Noroeste 20 Noroeste 0 -- -- 40
2020-06-17 21:00:00 24.9 12 Oeste 22 Sudoeste 0 -- -- 33
2020-06-17 20:00:00 25.9 10 Sudoeste 21 Sur 0 -- -- 33
2020-06-17 19:00:00 26.4 10 Sur 23 Sudoeste 0 -- -- 31
2020-06-17 18:00:00 26.7 10 Sudoeste 27 Sudoeste 0 -- -- 30
2020-06-17 17:00:00 26.4 13 Sur 26 Sur 0 -- -- 31
2020-06-17 16:00:00 25.7 13 Sudoeste 27 Sudoeste 0 -- -- 32
2020-06-17 15:00:00 25.3 12 Sur 25 Sudoeste 0 -- -- 36
2020-06-17 14:00:00 24.2 8 Sur 15 Sudoeste 0 -- -- 37
2020-06-17 13:00:00 22 7 Norte 19 Noroeste 0 -- -- 39
2020-06-17 12:00:00 20.3 11 Norte 24 Norte 0 -- -- 49
2020-06-17 11:00:00 19.1 15 Norte 29 Norte 0 -- -- 54
2020-06-17 10:00:00 18 14 Norte 26 Norte 0 -- -- 56
2020-06-17 09:00:00 16.1 14 Nordeste 26 Nordeste 0 -- -- 62
2020-06-17 08:00:00 14.3 13 Norte 31 Norte 0 -- -- 67
2020-06-17 07:00:00 13.1 12 Norte 21 Norte 0 -- -- 71
2020-06-17 06:00:00 13.4 12 Norte 20 Nordeste 0 -- -- 70
2020-06-17 05:00:00 14.1 10 Norte 19 Norte 0 -- -- 67
2020-06-17 04:00:00 14.4 8 Norte 20 Norte 0 -- -- 66
2020-06-17 03:00:00 15.4 14 Norte 22 Norte 0 -- -- 61
2020-06-17 02:00:00 14.2 9 Norte 13 Norte 0 -- -- 66
2020-06-17 01:00:00 15.8 7 Norte 18 Noroeste 0 -- -- 61
2020-06-17 00:00:00 17.7 12 Noroeste 24 Noroeste 0 -- -- 55
2020-06-16 23:00:00 18.3 8 Noroeste 23 Noroeste 0 -- -- 52
2020-06-16 22:00:00 20.7 13 Noroeste 24 Noroeste 0 -- -- 44
2020-06-16 21:00:00 23.2 14 Noroeste 35 Oeste 0 -- -- 40
2020-06-16 20:00:00 24.6 17 Noroeste 33 Noroeste 0 -- -- 34
2020-06-16 19:00:00 25.5 19 Noroeste 38 Noroeste 0 -- -- 34
2020-06-16 18:00:00 25.4 14 Sudoeste 31 Oeste 0 -- -- 42
2020-06-16 17:00:00 25.2 12 Oeste 35 Noroeste 0 -- -- 39
2020-06-16 16:00:00 25.8 13 Oeste 30 Oeste 0 -- -- 36
2020-06-16 15:00:00 25.2 13 Noroeste 27 Oeste 0 -- -- 39
2020-06-16 14:00:00 24.7 9 Oeste 21 Oeste 0 -- -- 38
2020-06-16 13:00:00 24.7 9 Sur 20 Sur 0 -- -- 38
2020-06-16 12:00:00 22.6 4 Noroeste 17 Nordeste 0 -- -- 45
2020-06-16 11:00:00 21.5 6 Nordeste 15 Nordeste 0 -- -- 47
2020-06-16 10:00:00 19.1 9 Norte 22 Norte 0 -- -- 56
2020-06-16 09:00:00 17 11 Norte 22 Norte 0 -- -- 63
2020-06-16 08:00:00 16 10 Norte 21 Norte 0 -- -- 68
2020-06-16 07:00:00 16.2 13 Norte 26 Norte 0 -- -- 65
2020-06-16 06:00:00 16.3 15 Norte 24 Norte 0 -- -- 65
2020-06-16 05:00:00 16.9 10 Nordeste 22 Norte 0 -- -- 62
2020-06-16 04:00:00 16.8 13 Norte 21 Norte 0 -- -- 61
2020-06-16 03:00:00 17.1 12 Norte 23 Norte 0 -- -- 61
2020-06-16 02:00:00 17.9 11 Nordeste 26 Nordeste 0 -- -- 59
2020-06-16 01:00:00 18.7 15 Nordeste 26 Nordeste 0 -- -- 54
2020-06-16 00:00:00 19.2 12 Nordeste 22 Norte 0 -- -- 54
2020-06-15 23:00:00 18.4 6 Norte 11 Noroeste 0 -- -- 56
2020-06-15 22:00:00 20.4 8 Noroeste 17 Noroeste 0 -- -- 50
2020-06-15 21:00:00 23.2 12 Noroeste 24 Noroeste 0 -- -- 43
2020-06-15 20:00:00 24.5 18 Noroeste 30 Noroeste 0 -- -- 40
2020-06-15 19:00:00 24.9 12 Noroeste 24 Noroeste 0 -- -- 39
2020-06-15 18:00:00 26.6 8 Noroeste 21 Oeste 0 -- -- 37
2020-06-15 17:00:00 25.7 7 Noroeste 27 Sudoeste 0 -- -- 39
2020-06-15 16:00:00 26.6 12 Sudoeste 32 Sur 0 -- -- 39
2020-06-15 15:00:00 25.1 12 Sudoeste 24 Sudoeste 0 -- -- 41
2020-06-15 14:00:00 24.6 6 Este 19 Norte 0 -- -- 39
2020-06-15 13:00:00 23.6 6 Norte 19 Norte 0 -- -- 44
2020-06-15 12:00:00 22.2 10 Norte 21 Norte 0 -- -- 46
2020-06-15 11:00:00 20.9 12 Nordeste 26 Norte 0 -- -- 52
2020-06-15 10:00:00 19.4 11 Norte 23 Norte 0 -- -- 55
2020-06-15 09:00:00 17.1 12 Norte 20 Norte 0 -- -- 63
2020-06-15 08:00:00 12.7 0 Calma 8 Noroeste 0 -- -- 78
2020-06-15 07:00:00 12.4 3 Oeste 7 Oeste 0 -- -- 76
2020-06-15 06:00:00 14.2 3 Noroeste 10 Norte 0 -- -- 71
2020-06-15 05:00:00 15.6 5 Norte 18 Norte 0 -- -- 68
2020-06-15 04:00:00 16.1 12 Norte 21 Norte 0 -- -- 65
2020-06-15 03:00:00 16.4 10 Norte 21 Norte 0 -- -- 63
2020-06-15 02:00:00 16.9 13 Norte 21 Norte 0 -- -- 61
2020-06-15 01:00:00 17.7 10 Norte 22 Nordeste 0 -- -- 59
2020-06-15 00:00:00 18.7 14 Norte 26 Norte 0 -- -- 56
2020-06-14 23:00:00 18.7 5 Norte 16 Noroeste 0 -- -- 53
2020-06-14 22:00:00 20.5 9 Noroeste 19 Noroeste 0 -- -- 47
2020-06-14 21:00:00 23.5 12 Noroeste 19 Noroeste 0 -- -- 40
2020-06-14 20:00:00 24.5 11 Oeste 22 Oeste 0 -- -- 38
2020-06-14 19:00:00 25.3 9 Sudoeste 23 Oeste 0 -- -- 35
2020-06-14 18:00:00 25.6 12 Sudoeste 20 Oeste 0 -- -- 34
2020-06-14 17:00:00 25.9 9 Sudoeste 40 Sudoeste 0 -- -- 34
2020-06-14 16:00:00 24.7 9 Norte 32 Noroeste 0 -- -- 36
2020-06-14 15:00:00 24.6 13 Sudoeste 31 Sudoeste 0 -- -- 34
2020-06-14 14:00:00 23.8 9 Sudoeste 24 Sudoeste 0 -- -- 36
2020-06-14 13:00:00 22.7 10 Oeste 20 Sudoeste 0 -- -- 39
2020-06-14 12:00:00 21.7 7 Sur 19 Sur 0 -- -- 40
2020-06-14 11:00:00 19.8 5 Norte 13 Noroeste 0 -- -- 46
2020-06-14 10:00:00 18.1 6 Nordeste 14 Norte 0 -- -- 52
2020-06-14 09:00:00 16.7 8 Nordeste 15 Nordeste 0 -- -- 61
2020-06-14 08:00:00 14.5 8 Norte 15 Norte 0 -- -- 66
2020-06-14 07:00:00 13 6 Norte 14 Norte 0 -- -- 69
2020-06-14 06:00:00 13.4 8 Norte 19 Norte 0 -- -- 69
2020-06-14 05:00:00 14.2 11 Nordeste 19 Norte 0 -- -- 68
2020-06-14 04:00:00 14 12 Nordeste 18 Nordeste 0 -- -- 69
2020-06-14 03:00:00 12.3 5 Norte 8 Norte 0 -- -- 72
2020-06-14 02:00:00 12.7 4 Noroeste 6 Norte 0 -- -- 71
2020-06-14 01:00:00 13.3 4 Norte 8 Noroeste 0 -- -- 71
2020-06-14 00:00:00 14.8 4 Noroeste 10 Oeste 0 -- -- 66
2020-06-13 23:00:00 15.9 4 Norte 9 Noroeste 0 -- -- 61
2020-06-13 22:00:00 18.8 8 Oeste 19 Oeste 0 -- -- 49
2020-06-13 21:00:00 21 9 Oeste 25 Oeste 0 -- -- 42
2020-06-13 20:00:00 22.1 12 Oeste 29 Sudoeste 0 -- -- 39
2020-06-13 19:00:00 22.6 11 Sudoeste 30 Sudoeste 0 -- -- 37
2020-06-13 18:00:00 23.4 15 Sudoeste 29 Sudoeste 0 -- -- 36
2020-06-13 17:00:00 22.5 10 Sudoeste 24 Sudoeste 0 -- -- 38
2020-06-13 16:00:00 22.7 14 Sudoeste 24 Sudoeste 0 -- -- 39
2020-06-13 15:00:00 21.8 15 Sudoeste 26 Sudoeste 0 -- -- 43
2020-06-13 14:00:00 20 10 Oeste 22 Sudoeste 0 -- -- 47
2020-06-13 13:00:00 20.9 9 Oeste 37 Oeste 0 -- -- 42
2020-06-13 12:00:00 19.3 5 Nordeste 16 Norte 0 -- -- 49
2020-06-13 11:00:00 18.1 4 Norte 13 Norte 0 -- -- 52
2020-06-13 10:00:00 15.9 3 Nordeste 7 Nordeste 0 -- -- 63
2020-06-13 09:00:00 14 0 Calma 5 Este 0 -- -- 73
2020-06-13 08:00:00 10.8 3 Este 5 Sudeste 0 -- -- 85
2020-06-13 07:00:00 9 2 Este 8 Sur 0 -- -- 87
2020-06-13 06:00:00 10.6 4 Sur 7 Sudeste 0 -- -- 83
2020-06-13 05:00:00 12.3 3 Sudoeste 12 Sudoeste 0 -- -- 77
2020-06-13 04:00:00 12.7 5 Sur 12 Sudoeste 0 -- -- 77
2020-06-13 03:00:00 12.7 4 Sudoeste 9 Sudoeste 0 -- -- 76
2020-06-13 02:00:00 12.9 5 Sudoeste 8 Sudoeste 0 -- -- 75
2020-06-13 01:00:00 13.8 4 Sudoeste 10 Oeste 0 -- -- 69
2020-06-13 00:00:00 14.2 5 Sudoeste 8 Sudoeste 0 -- -- 67
2020-06-12 23:00:00 15 3 Sudoeste 14 Oeste 0 -- -- 62
2020-06-12 22:00:00 16 6 Sudoeste 18 Oeste 0 -- -- 59
2020-06-12 21:00:00 17.2 12 Oeste 30 Oeste 0 -- -- 54
2020-06-12 20:00:00 18.8 19 Sudoeste 33 Sudoeste 0 -- -- 48
2020-06-12 19:00:00 18.6 17 Oeste 42 Oeste 0 -- -- 51
2020-06-12 18:00:00 21 24 Oeste 48 Oeste 0 -- -- 39
2020-06-12 17:00:00 21.2 22 Oeste 40 Sudoeste 0 -- -- 44
2020-06-12 16:00:00 19.5 17 Sudoeste 32 Sudoeste 0 -- -- 51
2020-06-12 15:00:00 16.6 11 Oeste 30 Oeste 0.2 -- -- 64
2020-06-12 14:00:00 17.6 11 Sudoeste 21 Oeste 0 -- -- 56
2020-06-12 13:00:00 16.2 11 Sudoeste 21 Sudoeste 0 -- -- 61
2020-06-12 12:00:00 13.9 5 Sur 16 Sur 0 -- -- 72
2020-06-12 11:00:00 13.6 8 Sur 17 Oeste 0 -- -- 72
2020-06-12 10:00:00 12.5 6 Sur 13 Sur 0 -- -- 72
2020-06-12 09:00:00 11.1 7 Sudoeste 14 Sur 0 -- -- 75
2020-06-12 08:00:00 10.4 7 Sur 14 Sudoeste 0 -- -- 75
2020-06-12 07:00:00 9.6 6 Sudoeste 9 Sudoeste 0 -- -- 76
2020-06-12 06:00:00 9.4 6 Sudoeste 13 Sudoeste 0 -- -- 74
2020-06-12 05:00:00 10.1 6 Oeste 10 Sudoeste 0 -- -- 68
2020-06-12 04:00:00 10.9 6 Oeste 18 Oeste 0 -- -- 66
2020-06-12 03:00:00 11.8 9 Oeste 17 Oeste 0 -- -- 62
2020-06-12 02:00:00 11.9 4 Oeste 19 Oeste 0 -- -- 60
2020-06-12 01:00:00 13 14 Oeste 25 Oeste 0 -- -- 55
2020-06-12 00:00:00 13.5 10 Oeste 30 Noroeste 0 -- -- 53
2020-06-11 23:00:00 15 18 Noroeste 31 Noroeste 0 -- -- 48
2020-06-11 22:00:00 16.4 9 Oeste 31 Oeste 0 -- -- 49
2020-06-11 21:00:00 19.1 18 Oeste 37 Oeste 0 -- -- 42
2020-06-11 20:00:00 21.7 16 Oeste 42 Sudoeste 0 -- -- 39
2020-06-11 19:00:00 22 30 Sudoeste 53 Oeste 0 -- -- 41
2020-06-11 18:00:00 23.8 26 Oeste 53 Sudoeste 0 -- -- 41
2020-06-11 17:00:00 23.6 29 Sudoeste 47 Sudoeste 0 -- -- 44
2020-06-11 16:00:00 24 17 Oeste 39 Sudoeste 0 -- -- 40
2020-06-11 15:00:00 24 19 Oeste 33 Oeste 0 -- -- 41
2020-06-11 14:00:00 23.3 16 Sudoeste 30 Sudoeste 0 -- -- 44
2020-06-11 13:00:00 20.6 12 Noroeste 23 Oeste 0 -- -- 50
2020-06-11 12:00:00 19.7 8 Oeste 19 Noroeste 0 -- -- 49
2020-06-11 11:00:00 19.9 5 Noroeste 13 Noroeste 0 -- -- 47
2020-06-11 10:00:00 18.4 4 Oeste 9 Sudoeste 0 -- -- 53
2020-06-11 09:00:00 14.9 7 Sudoeste 12 Sudoeste 0 -- -- 69
2020-06-11 08:00:00 12.4 0 Calma 5 Oeste 0 -- -- 79
2020-06-11 07:00:00 10.8 3 Sudoeste 6 Sudoeste 0 -- -- 81
2020-06-11 06:00:00 11.5 3 Este 7 Sudoeste 0 -- -- 78
2020-06-11 05:00:00 13.3 5 Sur 10 Sur 0 -- -- 71
2020-06-11 04:00:00 14.7 4 Sur 10 Sudoeste 0 -- -- 65
2020-06-11 03:00:00 16 8 Sur 13 Sur 0 -- -- 61
2020-06-11 02:00:00 16.4 7 Sudeste 10 Sudeste 0 -- -- 61
2020-06-11 01:00:00 18.2 4 Sudoeste 10 Sudoeste 0 -- -- 54
2020-06-11 00:00:00 18.9 3 Sudoeste 10 Sudoeste 0 -- -- 42